createdAt,value
2023-05-12T00:01:27.314Z,4.15
2023-05-12T00:03:54.096Z,4.50
2023-05-12T00:06:21.426Z,3.97
2023-05-12T00:08:48.096Z,4.00
2023-05-12T00:11:14.691Z,3.92
2023-05-12T00:13:41.296Z,4.18
2023-05-12T00:16:08.028Z,3.90
2023-05-12T00:18:34.624Z,4.18
2023-05-12T00:21:01.186Z,3.92
2023-05-12T00:23:27.684Z,3.95
2023-05-12T00:25:54.243Z,4.43
2023-05-12T00:28:20.924Z,4.07
2023-05-12T00:30:47.428Z,4.07
2023-05-12T00:33:14.007Z,4.25
2023-05-12T00:35:40.647Z,4.40
2023-05-12T00:38:07.243Z,4.60
2023-05-12T00:40:34.051Z,4.63
2023-05-12T00:43:00.608Z,4.45
2023-05-12T00:45:29.436Z,4.80
2023-05-12T00:47:56.800Z,4.45
2023-05-12T00:50:23.508Z,4.07
2023-05-12T00:52:50.224Z,4.57
2023-05-12T00:55:16.941Z,5.00
2023-05-12T00:57:44.004Z,4.28
2023-05-12T01:00:11.060Z,4.50
2023-05-12T01:02:37.843Z,4.35
2023-05-12T01:08:51.502Z,3.97
2023-05-12T01:11:18.007Z,4.32
2023-05-12T01:13:44.573Z,4.38
2023-05-12T01:16:15.290Z,4.05
2023-05-12T01:18:44.031Z,4.10
2023-05-12T01:21:11.233Z,4.28
2023-05-12T01:23:42.443Z,4.28
2023-05-12T01:26:09.951Z,4.60
2023-05-12T01:28:37.769Z,4.65
2023-05-12T01:31:06.479Z,5.00
2023-05-12T01:33:34.100Z,4.28
2023-05-12T01:36:00.559Z,4.28
2023-05-12T01:38:27.511Z,4.20
2023-05-12T01:40:53.980Z,4.60
2023-05-12T01:43:22.196Z,4.18
2023-05-12T01:45:49.003Z,4.22
2023-05-12T01:48:15.501Z,4.55
2023-05-12T01:50:42.446Z,4.85
2023-05-12T01:53:10.607Z,4.32
2023-05-12T01:55:37.127Z,4.03
2023-05-12T01:58:03.634Z,4.15
2023-05-12T02:00:30.397Z,4.03
2023-05-12T02:02:57.055Z,4.13
2023-05-12T02:05:23.612Z,3.88
2023-05-12T02:07:50.162Z,4.57
2023-05-12T02:10:16.890Z,4.60
2023-05-12T02:12:43.456Z,4.07
2023-05-12T02:15:10.230Z,4.10
2023-05-12T02:17:36.873Z,4.65
2023-05-12T02:20:05.212Z,4.35
2023-05-12T02:22:31.679Z,4.55
2023-05-12T02:24:58.087Z,4.93
2023-05-12T02:27:24.562Z,4.32
2023-05-12T02:29:51.228Z,4.60
2023-05-12T02:32:17.643Z,4.78
2023-05-12T02:34:44.233Z,4.90
2023-05-12T02:37:10.795Z,5.35
2023-05-12T02:39:37.259Z,4.88
2023-05-12T02:42:03.916Z,4.22
2023-05-12T02:44:30.361Z,4.30
2023-05-12T02:46:57.969Z,4.75
2023-05-12T02:49:24.511Z,4.95
2023-05-12T02:51:50.988Z,4.30
2023-05-12T02:54:17.494Z,4.63
2023-05-12T02:56:44.102Z,4.95
2023-05-12T02:59:10.831Z,4.82
2023-05-12T03:01:37.321Z,4.25
2023-05-12T03:04:03.824Z,4.75
2023-05-12T03:06:30.551Z,4.85
2023-05-12T03:08:56.986Z,5.25
2023-05-12T03:11:23.553Z,4.68
2023-05-12T03:13:49.974Z,4.60
2023-05-12T03:16:19.438Z,4.25
2023-05-12T03:18:46.277Z,4.80
2023-05-12T03:21:13.184Z,5.10
2023-05-12T03:23:39.623Z,4.82
2023-05-12T03:26:06.265Z,4.95
2023-05-12T03:28:32.738Z,5.43
2023-05-12T03:30:59.225Z,4.97
2023-05-12T03:33:25.680Z,4.45
2023-05-12T03:35:52.190Z,4.97
2023-05-12T03:38:18.727Z,4.72
2023-05-12T03:40:45.168Z,4.35
2023-05-12T03:43:11.601Z,4.43
2023-05-12T03:45:38.000Z,4.80
2023-05-12T03:48:05.039Z,5.22
2023-05-12T03:50:31.544Z,5.22
2023-05-12T03:52:58.140Z,4.85
2023-05-12T03:55:24.663Z,5.65
2023-05-12T03:57:51.401Z,5.40
2023-05-12T04:00:18.549Z,5.15
2023-05-12T04:02:45.323Z,5.32
2023-05-12T04:05:12.054Z,5.47
2023-05-12T04:07:38.590Z,5.32
2023-05-12T04:10:05.421Z,4.82
2023-05-12T04:12:31.974Z,5.75
2023-05-12T04:14:59.013Z,5.30
2023-05-12T04:17:25.539Z,5.30
2023-05-12T04:19:52.701Z,4.90
2023-05-12T04:22:19.228Z,5.57
2023-05-12T04:24:45.699Z,5.00
2023-05-12T04:27:12.658Z,5.38
2023-05-12T04:29:39.090Z,4.90
2023-05-12T04:32:06.090Z,5.70
2023-05-12T04:34:32.598Z,4.85
2023-05-12T04:36:59.037Z,4.70
2023-05-12T04:39:25.505Z,5.57
2023-05-12T04:41:52.135Z,5.43
2023-05-12T04:44:18.582Z,5.07
2023-05-12T04:46:45.065Z,5.57
2023-05-12T04:49:11.642Z,4.93
2023-05-12T04:51:42.976Z,5.43
2023-05-12T04:54:10.384Z,5.88
2023-05-12T04:56:37.485Z,5.57
2023-05-12T04:59:03.932Z,5.05
2023-05-12T05:01:30.838Z,5.30
2023-05-12T05:03:57.647Z,5.40
2023-05-12T05:06:24.111Z,5.22
2023-05-12T05:08:50.711Z,5.45
2023-05-12T05:11:17.209Z,6.10
2023-05-12T05:13:43.712Z,5.45
2023-05-12T05:16:10.291Z,5.63
2023-05-12T05:18:37.827Z,6.30
2023-05-12T05:21:04.459Z,5.50
2023-05-12T05:23:30.986Z,6.00
2023-05-12T05:25:57.475Z,5.20
2023-05-12T05:28:24.006Z,5.95
2023-05-12T05:30:50.516Z,5.53
2023-05-12T05:33:17.135Z,6.03
2023-05-12T05:35:43.801Z,5.28
2023-05-12T05:38:10.376Z,5.40
2023-05-12T05:40:51.469Z,5.00
2023-05-12T05:43:18.450Z,5.65
2023-05-12T05:45:44.893Z,5.50
2023-05-12T05:48:11.487Z,5.70
2023-05-12T05:50:38.058Z,5.82
2023-05-12T05:53:04.564Z,5.13
2023-05-12T05:55:31.106Z,5.60
2023-05-12T05:57:57.558Z,5.20
2023-05-12T06:00:24.068Z,4.85
2023-05-12T06:02:50.768Z,5.65
2023-05-12T06:05:18.091Z,5.45
2023-05-12T06:07:44.788Z,5.40
2023-05-12T06:10:12.609Z,5.22
2023-05-12T06:12:40.875Z,4.75
2023-05-12T06:15:08.334Z,5.10
2023-05-12T06:17:34.896Z,4.95
2023-05-12T06:20:01.560Z,4.63
2023-05-12T06:22:28.044Z,5.35
2023-05-12T06:24:54.512Z,5.47
2023-05-12T06:27:21.022Z,4.65
2023-05-12T06:29:47.440Z,4.30
2023-05-12T06:32:14.030Z,5.13
2023-05-12T06:34:40.635Z,4.45
2023-05-12T06:37:07.052Z,6.32
2023-05-12T06:39:33.489Z,5.07
2023-05-12T06:41:59.950Z,5.60
2023-05-12T06:44:26.799Z,5.03
2023-05-12T06:46:53.582Z,5.07
2023-05-12T06:49:20.468Z,4.57
2023-05-12T06:51:47.056Z,4.93
2023-05-12T06:54:13.702Z,4.72
2023-05-12T06:56:40.211Z,5.03
2023-05-12T06:59:07.201Z,4.53
2023-05-12T07:01:34.074Z,4.03
2023-05-12T07:04:00.653Z,4.55
2023-05-12T07:06:27.813Z,4.72
2023-05-12T07:08:55.323Z,4.47
2023-05-12T07:11:22.769Z,4.78
2023-05-12T07:13:50.848Z,4.22
2023-05-12T07:16:18.653Z,4.75
2023-05-12T07:18:45.988Z,5.10
2023-05-12T07:21:13.311Z,4.25
2023-05-12T07:23:40.105Z,4.72
2023-05-12T07:26:07.354Z,4.63
2023-05-12T07:28:36.621Z,4.35
2023-05-12T07:31:07.507Z,4.13
2023-05-12T07:33:35.066Z,4.68
2023-05-12T07:36:02.620Z,4.20
2023-05-12T07:38:29.149Z,4.45
2023-05-12T07:40:55.892Z,4.00
2023-05-12T07:43:22.446Z,4.43
2023-05-12T07:45:48.888Z,4.53
2023-05-12T07:48:15.603Z,3.40
2023-05-12T07:50:42.236Z,3.72
2023-05-12T07:53:08.964Z,3.80
2023-05-12T07:55:35.753Z,4.00
2023-05-12T07:58:02.548Z,3.70
2023-05-12T08:00:29.054Z,4.13
2023-05-12T08:02:55.746Z,3.63
2023-05-12T08:05:22.514Z,3.35
2023-05-12T08:07:48.898Z,3.55
2023-05-12T08:10:15.338Z,3.78
2023-05-12T08:12:42.368Z,3.60
2023-05-12T08:15:09.495Z,3.42
2023-05-12T08:17:36.450Z,3.75
2023-05-12T08:20:06.646Z,2.80
2023-05-12T08:22:33.652Z,3.25
2023-05-12T08:25:00.288Z,4.20
2023-05-12T08:27:26.942Z,3.17
2023-05-12T08:29:53.384Z,3.55
2023-05-12T08:32:19.986Z,3.33
2023-05-12T08:34:46.624Z,3.60
2023-05-12T08:37:13.404Z,3.30
2023-05-12T08:39:40.056Z,3.17
2023-05-12T08:42:26.434Z,3.10
2023-05-12T08:44:53.983Z,3.25
2023-05-12T08:47:22.940Z,3.40
2023-05-12T08:49:58.924Z,3.40
2023-05-12T08:52:27.234Z,3.72
2023-05-12T08:54:56.484Z,2.97
2023-05-12T08:57:23.798Z,3.40
2023-05-12T08:59:55.946Z,2.78
2023-05-12T09:02:24.420Z,2.92
2023-05-12T09:04:52.380Z,3.08
2023-05-12T09:07:19.893Z,2.83
2023-05-12T09:09:48.817Z,2.85
2023-05-12T09:12:18.207Z,2.90
2023-05-12T09:14:46.860Z,2.85
2023-05-12T09:17:14.360Z,2.95
2023-05-12T09:19:40.871Z,2.47
2023-05-12T09:22:09.492Z,2.70
2023-05-12T09:24:40.003Z,2.95
2023-05-12T09:27:07.161Z,2.80
2023-05-12T09:29:35.862Z,2.50
2023-05-12T09:32:09.178Z,2.70
2023-05-12T09:34:38.769Z,2.95
2023-05-12T09:37:07.712Z,2.47
2023-05-12T09:39:34.341Z,2.67
2023-05-12T09:42:01.065Z,2.53
2023-05-12T09:44:30.400Z,2.70
2023-05-12T09:47:06.586Z,2.72
2023-05-12T09:49:33.088Z,3.30
2023-05-12T09:51:59.740Z,3.33
2023-05-12T09:54:31.013Z,3.05
2023-05-12T09:56:59.873Z,3.22
2023-05-12T09:59:34.421Z,2.70
2023-05-12T10:02:02.517Z,2.58
2023-05-12T10:04:32.387Z,2.97
2023-05-12T10:06:59.525Z,3.25
2023-05-12T10:09:31.497Z,3.10
2023-05-12T10:11:59.117Z,3.10
2023-05-12T10:14:25.859Z,2.85
2023-05-12T10:16:54.132Z,5.70
2023-05-12T10:19:21.451Z,2.70
2023-05-12T10:21:49.160Z,3.28
2023-05-12T10:24:16.928Z,2.88
2023-05-12T10:26:44.725Z,2.72
2023-05-12T10:29:13.342Z,2.80
2023-05-12T10:31:40.204Z,2.58
2023-05-12T10:34:06.940Z,2.55
2023-05-12T10:36:46.877Z,2.60
2023-05-12T10:39:15.470Z,2.60
2023-05-12T10:41:42.729Z,2.50
2023-05-12T10:44:10.782Z,2.83
2023-05-12T10:46:37.612Z,2.80
2023-05-12T10:49:10.026Z,2.70
2023-05-12T10:51:45.588Z,2.58
2023-05-12T10:54:22.985Z,2.90
2023-05-12T10:56:50.604Z,3.17
2023-05-12T10:59:22.834Z,2.70
2023-05-12T11:02:00.644Z,2.70
2023-05-12T11:04:42.745Z,3.17
2023-05-12T11:07:11.819Z,2.90
2023-05-12T11:09:50.613Z,2.83
2023-05-12T11:12:26.386Z,3.05
2023-05-12T11:14:52.832Z,3.15
2023-05-12T11:17:19.296Z,3.35
2023-05-12T11:19:50.642Z,2.83
2023-05-12T11:22:19.944Z,3.00
2023-05-12T11:24:47.438Z,2.90
2023-05-12T11:27:16.449Z,2.53
2023-05-12T11:29:43.676Z,2.97
2023-05-12T11:32:12.466Z,2.80
2023-05-12T11:34:39.579Z,2.85
2023-05-12T11:37:06.698Z,3.22
2023-05-12T11:39:33.521Z,2.60
2023-05-12T11:42:12.981Z,3.22
2023-05-12T11:44:50.059Z,2.75
2023-05-12T11:47:17.682Z,2.80
2023-05-12T11:49:49.794Z,2.90
2023-05-12T11:52:17.095Z,2.85
2023-05-12T11:54:51.600Z,2.95
2023-05-12T11:57:32.430Z,2.72
2023-05-12T12:00:00.616Z,2.60
2023-05-12T12:02:28.193Z,2.85
2023-05-12T12:04:54.989Z,3.00
2023-05-12T12:07:34.877Z,2.70
2023-05-12T12:10:27.474Z,2.83
2023-05-12T12:12:53.926Z,2.40
2023-05-12T12:15:20.605Z,3.03
2023-05-12T12:17:47.298Z,2.63
2023-05-12T12:20:13.844Z,2.42
2023-05-12T12:22:40.292Z,2.45
2023-05-12T12:25:07.372Z,2.30
2023-05-12T12:27:33.813Z,2.50
2023-05-12T12:30:00.316Z,2.30
2023-05-12T12:32:27.137Z,2.45
2023-05-12T12:34:53.887Z,2.67
2023-05-12T12:37:20.466Z,2.38
2023-05-12T12:39:47.903Z,2.67
2023-05-12T12:42:15.630Z,2.42
2023-05-12T12:44:42.411Z,2.80
2023-05-12T12:47:08.894Z,2.60
2023-05-12T12:49:35.350Z,2.80
2023-05-12T12:52:02.136Z,2.72
2023-05-12T12:54:28.828Z,2.50
2023-05-12T12:56:55.931Z,2.63
2023-05-12T12:59:22.863Z,3.10
2023-05-12T13:01:49.377Z,2.70
2023-05-12T13:04:17.144Z,2.88
2023-05-12T13:06:43.811Z,2.45
2023-05-12T13:09:10.794Z,2.80
2023-05-12T13:11:37.661Z,2.58
2023-05-12T13:14:04.646Z,3.45
2023-05-12T13:16:31.676Z,2.42
2023-05-12T13:18:58.557Z,2.42
2023-05-12T13:21:25.304Z,2.72
2023-05-12T13:23:51.784Z,2.53
2023-05-12T13:26:18.272Z,2.60
2023-05-12T13:28:44.749Z,2.53
2023-05-12T13:31:11.660Z,3.42
2023-05-12T13:33:38.334Z,2.80
2023-05-12T13:36:08.332Z,2.88
2023-05-12T13:38:34.851Z,2.45
2023-05-12T13:41:01.966Z,2.35
2023-05-12T13:43:28.462Z,2.63
2023-05-12T13:45:55.067Z,2.47
2023-05-12T13:48:21.646Z,2.40
2023-05-12T13:50:48.120Z,2.55
2023-05-12T13:53:14.651Z,2.40
2023-05-12T13:55:41.521Z,2.40
2023-05-12T13:58:08.086Z,2.58
2023-05-12T14:00:34.634Z,2.63
2023-05-12T14:03:01.743Z,2.55
2023-05-12T14:05:28.431Z,2.97
2023-05-12T14:07:55.054Z,2.58
2023-05-12T14:10:21.532Z,2.47
2023-05-12T14:12:48.236Z,3.13
2023-05-12T14:15:28.773Z,2.40
2023-05-12T14:17:59.877Z,2.60
2023-05-12T14:20:26.460Z,2.80
2023-05-12T14:22:52.914Z,2.53
2023-05-12T14:25:19.578Z,3.03
2023-05-12T14:27:46.405Z,2.28
2023-05-12T14:30:13.453Z,3.28
2023-05-12T14:32:40.023Z,2.35
2023-05-12T14:35:08.333Z,2.45
2023-05-12T14:37:35.153Z,2.58
2023-05-12T14:40:01.886Z,2.30
2023-05-12T14:42:29.591Z,2.70
2023-05-12T14:44:56.432Z,2.95
2023-05-12T14:47:23.039Z,2.25
2023-05-12T14:49:49.655Z,2.53
2023-05-12T14:52:16.345Z,2.60
2023-05-12T14:54:42.783Z,2.78
2023-05-12T14:57:10.527Z,2.17
2023-05-12T14:59:36.986Z,2.25
2023-05-12T15:02:03.518Z,2.10
2023-05-12T15:04:30.726Z,2.33
2023-05-12T15:06:57.225Z,2.80
2023-05-12T15:09:23.795Z,2.58
2023-05-12T15:11:51.464Z,2.20
2023-05-12T15:14:18.121Z,2.63
2023-05-12T15:16:44.716Z,2.45
2023-05-12T15:19:11.356Z,2.40
2023-05-12T15:21:37.897Z,2.60
2023-05-12T15:24:04.507Z,3.15
2023-05-12T15:26:33.819Z,2.20
2023-05-12T15:29:02.062Z,2.40
2023-05-12T15:31:29.828Z,2.58
2023-05-12T15:33:57.637Z,2.88
2023-05-12T15:36:24.184Z,2.83
2023-05-12T15:38:50.693Z,2.58
2023-05-12T15:41:17.201Z,2.50
2023-05-12T15:43:43.671Z,2.72
2023-05-12T15:46:11.380Z,2.90
2023-05-12T15:48:39.151Z,2.13
2023-05-12T15:51:05.839Z,2.20
2023-05-12T15:53:32.634Z,2.70
2023-05-12T15:56:00.892Z,2.70
2023-05-12T15:58:27.663Z,2.90
2023-05-12T16:00:54.702Z,2.78
2023-05-12T16:03:21.520Z,2.63
2023-05-12T16:05:48.412Z,3.05
2023-05-12T16:08:14.905Z,2.38
2023-05-12T16:10:41.427Z,2.60
2023-05-12T16:13:07.910Z,2.47
2023-05-12T16:15:34.404Z,2.85
2023-05-12T16:18:00.896Z,2.65
2023-05-12T16:20:27.359Z,2.45
2023-05-12T16:22:53.895Z,2.33
2023-05-12T16:25:20.521Z,2.33
2023-05-12T16:27:47.124Z,3.10
2023-05-12T16:30:14.132Z,2.35
2023-05-12T16:32:40.644Z,2.50
2023-05-12T16:35:07.791Z,2.85
2023-05-12T16:37:34.371Z,2.40
2023-05-12T16:40:00.934Z,2.80
2023-05-12T16:42:27.356Z,3.05
2023-05-12T16:44:57.187Z,2.53
2023-05-12T16:47:23.686Z,3.00
2023-05-12T16:49:53.532Z,2.70
2023-05-12T16:52:20.593Z,2.70
2023-05-12T16:54:47.809Z,2.88
2023-05-12T16:57:14.244Z,2.30
2023-05-12T16:59:40.987Z,2.63
2023-05-12T17:02:08.339Z,2.42
2023-05-12T17:04:35.031Z,2.53
2023-05-12T17:07:01.617Z,2.50
2023-05-12T17:09:28.223Z,2.20
2023-05-12T17:11:54.783Z,2.67
2023-05-12T17:14:21.292Z,2.45
2023-05-12T17:16:47.695Z,2.55
2023-05-12T17:19:14.792Z,3.38
2023-05-12T17:21:42.326Z,2.45
2023-05-12T17:24:09.221Z,2.55
2023-05-12T17:26:36.024Z,3.05
2023-05-12T17:29:02.558Z,2.70
2023-05-12T17:31:29.189Z,3.15
2023-05-12T17:33:55.750Z,2.40
2023-05-12T17:36:22.524Z,2.78
2023-05-12T17:38:51.526Z,2.40
2023-05-12T17:41:18.633Z,2.78
2023-05-12T17:43:45.365Z,2.60
2023-05-12T17:46:12.028Z,2.70
2023-05-12T17:48:38.881Z,3.08
2023-05-12T17:51:05.932Z,2.58
2023-05-12T17:53:33.972Z,2.75
2023-05-12T17:56:00.493Z,2.78
2023-05-12T17:58:27.207Z,2.70
2023-05-12T18:00:53.776Z,2.80
2023-05-12T18:03:23.812Z,2.67
2023-05-12T18:05:52.105Z,3.22
2023-05-12T18:08:18.883Z,3.20
2023-05-12T18:10:45.790Z,2.80
2023-05-12T18:13:14.553Z,2.83
2023-05-12T18:15:41.735Z,2.75
2023-05-12T18:18:08.996Z,2.83
2023-05-12T18:20:35.770Z,2.92
2023-05-12T18:23:02.265Z,2.80
2023-05-12T18:25:28.684Z,3.05
2023-05-12T18:27:55.141Z,2.47
2023-05-12T18:30:21.685Z,3.15
2023-05-12T18:32:48.257Z,3.17
2023-05-12T18:35:14.781Z,3.20
2023-05-12T18:37:41.292Z,2.83
2023-05-12T18:40:08.360Z,3.45
2023-05-12T18:42:34.963Z,3.03
2023-05-12T18:45:01.426Z,2.90
2023-05-12T18:47:27.913Z,3.03
2023-05-12T18:49:54.574Z,3.67
2023-05-12T18:52:21.385Z,3.08
2023-05-12T18:54:49.687Z,3.22
2023-05-12T18:57:16.516Z,3.05
2023-05-12T18:59:43.141Z,2.72
2023-05-12T19:02:09.788Z,3.05
2023-05-12T19:04:36.609Z,3.25
2023-05-12T19:07:03.862Z,3.05
2023-05-12T19:09:30.293Z,2.83
2023-05-12T19:11:56.786Z,3.28
2023-05-12T19:14:23.282Z,2.88
2023-05-12T19:16:49.774Z,3.20
2023-05-12T19:19:16.328Z,2.83
2023-05-12T19:21:43.013Z,2.88
2023-05-12T19:24:10.641Z,3.13
2023-05-12T19:26:37.442Z,2.90
2023-05-12T19:29:04.504Z,3.53
2023-05-12T19:31:31.282Z,3.28
2023-05-12T19:33:57.949Z,3.22
2023-05-12T19:36:24.592Z,3.10
2023-05-12T19:38:51.275Z,2.88
2023-05-12T19:41:17.850Z,3.28
2023-05-12T19:43:44.393Z,3.17
2023-05-12T19:46:10.980Z,3.47
2023-05-12T19:48:37.544Z,3.35
2023-05-12T19:51:04.013Z,3.38
2023-05-12T19:53:30.686Z,3.42
2023-05-12T19:55:57.179Z,2.78
2023-05-12T19:58:23.850Z,3.72
2023-05-12T20:00:50.352Z,2.90
2023-05-12T20:03:17.060Z,3.47
2023-05-12T20:05:43.922Z,3.17
2023-05-12T20:08:10.476Z,3.10
2023-05-12T20:10:37.011Z,3.67
2023-05-12T20:13:04.395Z,3.50
2023-05-12T20:15:31.356Z,3.97
2023-05-12T20:17:58.245Z,3.00
2023-05-12T20:20:24.870Z,3.47
2023-05-12T20:22:51.889Z,3.22
2023-05-12T20:25:19.619Z,2.88
2023-05-12T20:27:46.581Z,3.10
2023-05-12T20:30:13.401Z,3.65
2023-05-12T20:32:40.212Z,3.70
2023-05-12T20:35:07.038Z,3.47
2023-05-12T20:37:33.693Z,3.63
2023-05-12T20:40:00.176Z,3.58
2023-05-12T20:42:26.781Z,3.00
2023-05-12T20:44:53.810Z,3.13
2023-05-12T20:47:20.366Z,3.22
2023-05-12T20:49:47.131Z,3.30
2023-05-12T20:52:13.621Z,3.00
2023-05-12T20:54:40.094Z,3.90
2023-05-12T20:57:06.605Z,3.47
2023-05-12T20:59:33.270Z,3.42
2023-05-12T21:01:59.774Z,3.88
2023-05-12T21:04:26.308Z,3.35
2023-05-12T21:06:53.725Z,3.72
2023-05-12T21:09:20.543Z,3.60
2023-05-12T21:11:47.221Z,3.78
2023-05-12T21:14:13.800Z,3.20
2023-05-12T21:16:40.423Z,3.65
2023-05-12T21:19:07.132Z,3.83
2023-05-12T21:21:33.750Z,3.85
2023-05-12T21:24:00.274Z,3.88
2023-05-12T21:26:27.609Z,3.47
2023-05-12T21:28:54.074Z,3.33
2023-05-12T21:31:20.635Z,3.42
2023-05-12T21:33:48.052Z,3.30
2023-05-12T21:36:14.568Z,4.03
2023-05-12T21:38:40.984Z,3.70
2023-05-12T21:41:07.485Z,3.60
2023-05-12T21:43:33.965Z,3.40
2023-05-12T21:46:06.591Z,3.55
2023-05-12T21:48:33.459Z,3.90
2023-05-12T21:51:01.611Z,3.58
2023-05-12T21:53:28.829Z,3.72
2023-05-12T21:55:55.914Z,3.40
2023-05-12T21:58:23.675Z,3.97
2023-05-12T22:00:53.025Z,3.75
2023-05-12T22:03:25.120Z,3.28
2023-05-12T22:05:51.813Z,3.20
2023-05-12T22:08:18.656Z,3.20
2023-05-12T22:10:45.189Z,3.63
2023-05-12T22:13:11.676Z,3.35
2023-05-12T22:15:38.335Z,4.35
2023-05-12T22:18:05.051Z,4.05
2023-05-12T22:20:31.661Z,3.53
2023-05-12T22:22:58.633Z,3.72
2023-05-12T22:25:25.342Z,3.90
2023-05-12T22:27:51.786Z,3.92
2023-05-12T22:30:18.903Z,3.53
2023-05-12T22:32:45.526Z,3.75
2023-05-12T22:35:12.061Z,3.85
2023-05-12T22:37:38.636Z,3.38
2023-05-12T22:40:05.805Z,3.72
2023-05-12T22:42:32.383Z,3.80
2023-05-12T22:45:00.726Z,3.28
2023-05-12T22:47:27.229Z,4.03
2023-05-12T22:49:53.678Z,3.45
2023-05-12T22:52:20.238Z,3.45
2023-05-12T22:54:46.727Z,3.70
2023-05-12T22:57:13.249Z,3.80
2023-05-12T22:59:39.684Z,3.60
2023-05-12T23:02:06.125Z,3.50
2023-05-12T23:04:32.578Z,4.00
2023-05-12T23:06:58.984Z,3.50
2023-05-12T23:09:25.395Z,4.53
2023-05-12T23:11:51.964Z,3.80
2023-05-12T23:14:18.458Z,3.70
2023-05-12T23:16:44.917Z,3.70
2023-05-12T23:19:11.557Z,4.03
2023-05-12T23:21:38.129Z,3.92
2023-05-12T23:24:04.994Z,3.45
2023-05-12T23:26:31.612Z,3.70
2023-05-12T23:28:58.411Z,3.97
2023-05-12T23:31:25.306Z,4.13
2023-05-12T23:33:51.964Z,3.65
2023-05-12T23:36:18.515Z,3.95
2023-05-12T23:38:44.964Z,3.80
2023-05-12T23:41:11.463Z,4.10
2023-05-12T23:43:38.970Z,3.50
2023-05-12T23:46:05.807Z,3.58
2023-05-12T23:48:32.300Z,3.50
2023-05-12T23:50:58.973Z,3.63
2023-05-12T23:53:25.747Z,3.88
2023-05-12T23:55:52.462Z,3.90
2023-05-12T23:58:18.931Z,3.88
